Time;durP1;ratioP1;P1;durP2;ratioP2;P2;SDS_P1;SDS_P2;PMS_P1;PMS_P2;Temp;Humidity;BMP_temperature;BMP_pressure;BME280_temperature;BME280_humidity;BME280_pressure;Samples;Min_cycle;Max_cycle;Signal;HPM_P1;HPM_P2
2024/03/08 00:00:33;;;;;;;28.35;21.90;;;;;;;;;;5055256;28;20389;-78
2024/03/08 00:03:00;;;;;;;29.90;22.38;;;;;;;;;;5055850;28;20415;-79
2024/03/08 00:05:27;;;;;;;28.40;22.55;;;;;;;;;;5055509;28;20420;-79
2024/03/08 00:07:53;;;;;;;29.58;22.38;;;;;;;;;;5055446;28;20474;-78
2024/03/08 00:10:20;;;;;;;27.27;21.65;;;;;;;;;;5055750;28;20374;-79
2024/03/08 00:12:47;;;;;;;27.73;21.77;;;;;;;;;;5056534;28;20462;-79
2024/03/08 00:15:14;;;;;;;26.00;20.60;;;;;;;;;;5055762;28;20409;-78
2024/03/08 00:17:40;;;;;;;27.30;21.98;;;;;;;;;;5056161;28;20450;-79
2024/03/08 00:20:08;;;;;;;27.10;20.65;;;;;;;;;;5056444;28;20395;-79
2024/03/08 00:22:37;;;;;;;25.70;20.88;;;;;;;;;;5055294;28;20413;-79
2024/03/08 00:25:04;;;;;;;26.25;20.60;;;;;;;;;;5055676;28;20465;-79
2024/03/08 00:27:33;;;;;;;24.38;19.88;;;;;;;;;;5055759;28;20389;-79
2024/03/08 00:30:00;;;;;;;24.45;19.52;;;;;;;;;;5056315;28;20388;-79
2024/03/08 00:32:27;;;;;;;25.30;19.38;;;;;;;;;;5058992;28;20382;-78
2024/03/08 00:34:54;;;;;;;25.42;19.48;;;;;;;;;;5059992;28;20389;-79
2024/03/08 00:37:20;;;;;;;24.52;19.88;;;;;;;;;;5063774;28;20415;-79
2024/03/08 00:39:46;;;;;;;24.90;20.05;;;;;;;;;;5062786;28;20385;-80
2024/03/08 00:42:12;;;;;;;27.13;19.85;;;;;;;;;;5058075;28;20385;-79
2024/03/08 00:44:38;;;;;;;21.87;18.80;;;;;;;;;;5058309;28;20414;-79
2024/03/08 00:47:04;;;;;;;27.33;19.95;;;;;;;;;;5059611;28;20377;-79
2024/03/08 00:49:30;;;;;;;23.27;19.55;;;;;;;;;;5058577;28;20401;-79
2024/03/08 00:51:56;;;;;;;23.38;19.52;;;;;;;;;;5057956;28;20847;-79
2024/03/08 00:54:22;;;;;;;22.35;18.40;;;;;;;;;;5039803;28;20374;-79
2024/03/08 00:56:48;;;;;;;30.08;20.33;;;;;;;;;;5038571;28;20464;-78
2024/03/08 00:59:14;;;;;;;26.65;19.88;;;;;;;;;;5038597;28;20741;-79
2024/03/08 01:01:41;;;;;;;24.60;19.57;;;;;;;;;;5039292;28;20390;-80
2024/03/08 01:04:07;;;;;;;24.90;19.92;;;;;;;;;;5039017;28;20390;-79
2024/03/08 01:06:34;;;;;;;24.00;19.17;;;;;;;;;;5038869;28;20379;-79
2024/03/08 01:09:00;;;;;;;24.40;19.75;;;;;;;;;;5038425;28;20394;-79
2024/03/08 01:11:27;;;;;;;23.57;18.77;;;;;;;;;;5039085;28;20411;-80
2024/03/08 01:13:53;;;;;;;25.52;19.83;;;;;;;;;;5039316;28;20865;-79
2024/03/08 01:16:22;;;;;;;25.95;20.13;;;;;;;;;;5041769;28;20391;-79
2024/03/08 01:18:48;;;;;;;23.02;18.67;;;;;;;;;;5039957;28;20387;-80
2024/03/08 01:21:14;;;;;;;25.40;19.27;;;;;;;;;;5039340;28;20415;-79
2024/03/08 01:23:40;;;;;;;25.45;19.42;;;;;;;;;;5039323;28;20880;-78
2024/03/08 01:26:06;;;;;;;22.83;18.67;;;;;;;;;;5048921;28;20405;-79
2024/03/08 01:28:34;;;;;;;22.58;18.95;;;;;;;;;;5059377;28;20708;-79
2024/03/08 01:31:00;;;;;;;21.92;18.83;;;;;;;;;;5059208;28;20384;-79
2024/03/08 01:33:27;;;;;;;22.52;18.85;;;;;;;;;;5058816;28;20385;-79
2024/03/08 01:35:54;;;;;;;25.48;19.05;;;;;;;;;;5058832;28;20856;-79
2024/03/08 01:38:23;;;;;;;22.05;18.92;;;;;;;;;;5058343;28;20863;-79
2024/03/08 01:40:49;;;;;;;24.65;19.63;;;;;;;;;;5058161;28;20385;-79
2024/03/08 01:43:19;;;;;;;24.27;19.13;;;;;;;;;;5058626;28;20382;-79
2024/03/08 01:45:45;;;;;;;22.55;18.33;;;;;;;;;;5058072;28;20413;-79
2024/03/08 01:48:12;;;;;;;22.23;18.95;;;;;;;;;;5058568;28;20452;-79
2024/03/08 01:50:39;;;;;;;22.88;19.00;;;;;;;;;;5057897;28;20433;-79
2024/03/08 01:53:05;;;;;;;23.47;19.43;;;;;;;;;;5058867;28;20441;-78
2024/03/08 01:55:31;;;;;;;24.85;19.80;;;;;;;;;;5057738;28;20381;-79
2024/03/08 01:57:58;;;;;;;26.15;19.75;;;;;;;;;;5057557;28;20451;-79
2024/03/08 02:00:26;;;;;;;23.58;19.08;;;;;;;;;;5058253;28;20843;-78
2024/03/08 02:02:54;;;;;;;23.33;19.08;;;;;;;;;;5057955;28;20408;-79
2024/03/08 02:05:20;;;;;;;26.02;20.05;;;;;;;;;;5058098;28;20869;-79
2024/03/08 02:07:46;;;;;;;24.58;20.00;;;;;;;;;;5058072;28;20385;-79
2024/03/08 02:10:12;;;;;;;25.75;19.17;;;;;;;;;;5058040;28;20891;-78
2024/03/08 02:12:39;;;;;;;24.92;20.25;;;;;;;;;;5057998;28;20387;-79
2024/03/08 02:15:06;;;;;;;24.27;20.23;;;;;;;;;;5057891;28;20380;-79
2024/03/08 02:17:33;;;;;;;22.33;18.63;;;;;;;;;;5057870;28;20973;-79
2024/03/08 02:20:01;;;;;;;23.77;18.85;;;;;;;;;;5057797;28;20441;-79
2024/03/08 02:22:28;;;;;;;23.25;18.77;;;;;;;;;;5057790;28;20863;-79
2024/03/08 02:24:54;;;;;;;23.73;20.15;;;;;;;;;;5057780;28;20412;-78
2024/03/08 02:27:25;;;;;;;24.65;20.02;;;;;;;;;;5057368;28;20369;-79
2024/03/08 02:29:51;;;;;;;24.65;19.35;;;;;;;;;;5057486;28;20378;-79
2024/03/08 02:32:17;;;;;;;24.00;18.75;;;;;;;;;;5057361;28;20374;-79
2024/03/08 02:34:44;;;;;;;22.60;19.48;;;;;;;;;;5057945;28;20377;-79
2024/03/08 02:37:10;;;;;;;22.58;18.88;;;;;;;;;;5056182;28;20378;-79
2024/03/08 02:39:36;;;;;;;24.20;19.43;;;;;;;;;;5057063;28;20475;-80
2024/03/08 02:42:02;;;;;;;22.85;19.52;;;;;;;;;;5056971;28;20443;-79
2024/03/08 02:44:28;;;;;;;26.45;20.80;;;;;;;;;;5057036;28;20405;-79
2024/03/08 02:46:55;;;;;;;25.08;20.75;;;;;;;;;;5056854;28;20393;-78
2024/03/08 02:49:21;;;;;;;27.55;21.10;;;;;;;;;;5056846;28;21220;-79
2024/03/08 02:51:47;;;;;;;28.42;21.23;;;;;;;;;;5056740;28;20393;-79
2024/03/08 02:54:13;;;;;;;26.35;20.80;;;;;;;;;;5056862;28;20386;-79
2024/03/08 02:56:39;;;;;;;26.00;20.65;;;;;;;;;;5057106;28;20388;-79
2024/03/08 02:59:05;;;;;;;28.02;20.63;;;;;;;;;;5057218;28;20373;-80
2024/03/08 03:01:32;;;;;;;25.05;20.20;;;;;;;;;;5055268;28;20389;-79
2024/03/08 03:03:58;;;;;;;25.05;20.00;;;;;;;;;;5036517;28;20379;-78
2024/03/08 03:06:24;;;;;;;25.38;20.10;;;;;;;;;;5036361;28;20431;-79
2024/03/08 03:08:51;;;;;;;25.75;20.48;;;;;;;;;;5036523;28;20387;-78
2024/03/08 03:11:17;;;;;;;26.10;20.57;;;;;;;;;;5036427;28;20733;-79
2024/03/08 03:13:48;;;;;;;29.98;22.02;;;;;;;;;;5033873;28;20796;-79
2024/03/08 03:16:18;;;;;;;27.55;21.23;;;;;;;;;;5036262;28;20383;-79
2024/03/08 03:18:45;;;;;;;29.30;22.02;;;;;;;;;;5043969;28;20870;-79
2024/03/08 03:21:12;;;;;;;27.25;21.13;;;;;;;;;;5056864;28;20448;-79
2024/03/08 03:23:39;;;;;;;27.50;21.58;;;;;;;;;;5057089;28;20403;-79
2024/03/08 03:26:07;;;;;;;28.90;22.00;;;;;;;;;;5057302;28;20408;-79
2024/03/08 03:28:33;;;;;;;28.97;22.43;;;;;;;;;;5057209;28;20382;-79
2024/03/08 03:30:59;;;;;;;28.67;22.08;;;;;;;;;;5057850;28;20400;-79
2024/03/08 03:33:25;;;;;;;28.52;22.27;;;;;;;;;;5057366;28;20373;-79
2024/03/08 03:35:52;;;;;;;28.90;21.25;;;;;;;;;;5057227;28;20389;-80
2024/03/08 03:38:19;;;;;;;28.30;21.73;;;;;;;;;;5056837;28;21120;-79
2024/03/08 03:40:46;;;;;;;26.50;21.23;;;;;;;;;;5057541;28;20389;-80
2024/03/08 03:43:12;;;;;;;26.60;21.42;;;;;;;;;;5056861;28;20736;-79
2024/03/08 03:45:38;;;;;;;30.08;22.08;;;;;;;;;;5056930;28;20409;-78
2024/03/08 03:48:04;;;;;;;26.25;20.75;;;;;;;;;;5057390;28;20374;-79
2024/03/08 03:50:30;;;;;;;26.80;21.33;;;;;;;;;;5057298;28;20905;-78
2024/03/08 03:52:57;;;;;;;26.42;20.92;;;;;;;;;;5057034;28;20400;-78
2024/03/08 03:55:23;;;;;;;26.63;21.23;;;;;;;;;;5059123;28;20456;-80
2024/03/08 03:57:49;;;;;;;28.58;21.83;;;;;;;;;;5055507;28;20428;-80
2024/03/08 04:00:15;;;;;;;29.15;22.30;;;;;;;;;;5053920;28;20412;-80
2024/03/08 04:02:42;;;;;;;31.02;22.65;;;;;;;;;;5051953;28;20385;-80
2024/03/08 04:05:09;;;;;;;28.88;22.48;;;;;;;;;;5051764;28;20401;-80
2024/03/08 04:07:35;;;;;;;28.50;22.05;;;;;;;;;;5054894;28;20378;-80
2024/03/08 04:10:06;;;;;;;27.30;21.57;;;;;;;;;;5055685;28;20381;-80
2024/03/08 04:12:32;;;;;;;27.88;21.70;;;;;;;;;;5055578;28;20373;-80
2024/03/08 04:14:58;;;;;;;28.65;21.58;;;;;;;;;;5055442;28;20381;-80
2024/03/08 04:17:24;;;;;;;27.80;21.83;;;;;;;;;;5055093;28;20484;-80
2024/03/08 04:19:50;;;;;;;30.27;21.90;;;;;;;;;;5055149;28;20400;-80
2024/03/08 04:22:17;;;;;;;28.20;22.30;;;;;;;;;;5055370;28;20384;-80
2024/03/08 04:24:43;;;;;;;28.20;21.50;;;;;;;;;;5055163;28;20440;-80
2024/03/08 04:27:09;;;;;;;26.25;20.73;;;;;;;;;;5055065;28;20389;-80
2024/03/08 04:29:35;;;;;;;31.10;21.80;;;;;;;;;;5055244;28;20437;-80
2024/03/08 04:32:03;;;;;;;28.08;21.10;;;;;;;;;;5055002;28;20405;-81
2024/03/08 04:34:30;;;;;;;27.20;20.85;;;;;;;;;;5055222;28;20925;-80
2024/03/08 04:36:58;;;;;;;29.38;21.58;;;;;;;;;;5055288;28;20397;-80
2024/03/08 04:39:24;;;;;;;27.58;21.40;;;;;;;;;;5055857;28;20387;-80
2024/03/08 04:41:50;;;;;;;26.77;20.63;;;;;;;;;;5055499;28;20901;-79
2024/03/08 04:44:17;;;;;;;28.75;22.50;;;;;;;;;;5055381;28;20422;-79
2024/03/08 04:46:44;;;;;;;30.90;22.55;;;;;;;;;;5055229;28;20378;-80
2024/03/08 04:49:11;;;;;;;32.08;23.92;;;;;;;;;;5054766;28;20412;-78
2024/03/08 04:51:37;;;;;;;32.30;23.73;;;;;;;;;;5055024;28;20598;-78
2024/03/08 04:54:04;;;;;;;30.60;22.98;;;;;;;;;;5055059;28;20413;-79
2024/03/08 04:56:31;;;;;;;28.20;22.30;;;;;;;;;;5055216;28;20413;-79
2024/03/08 04:58:57;;;;;;;29.05;23.02;;;;;;;;;;5055026;28;20469;-79
2024/03/08 05:01:23;;;;;;;34.20;24.35;;;;;;;;;;5047866;28;20384;-79
2024/03/08 05:03:50;;;;;;;34.27;24.00;;;;;;;;;;5034757;28;20399;-79
2024/03/08 05:06:16;;;;;;;31.00;23.17;;;;;;;;;;5034727;28;21185;-79
2024/03/08 05:08:42;;;;;;;32.50;23.60;;;;;;;;;;5034644;28;20386;-79
2024/03/08 05:11:09;;;;;;;28.98;22.23;;;;;;;;;;5034856;28;20486;-79
2024/03/08 05:13:35;;;;;;;29.77;23.17;;;;;;;;;;5034864;28;20383;-79
2024/03/08 05:16:01;;;;;;;32.38;23.80;;;;;;;;;;5037380;28;20468;-79
2024/03/08 05:18:32;;;;;;;32.53;24.05;;;;;;;;;;5034674;28;20410;-79
2024/03/08 05:20:58;;;;;;;33.38;24.55;;;;;;;;;;5048653;28;20377;-79
2024/03/08 05:23:24;;;;;;;32.08;22.92;;;;;;;;;;5054320;28;20465;-79
2024/03/08 05:25:50;;;;;;;32.28;23.23;;;;;;;;;;5054660;28;20431;-79
2024/03/08 05:28:16;;;;;;;33.42;24.77;;;;;;;;;;5054883;28;20926;-79
2024/03/08 05:30:42;;;;;;;32.08;23.45;;;;;;;;;;5054329;28;20377;-79
2024/03/08 05:33:14;;;;;;;33.63;24.63;;;;;;;;;;5054375;28;20729;-78
2024/03/08 05:35:40;;;;;;;31.73;23.70;;;;;;;;;;5054210;28;20413;-79
2024/03/08 05:38:06;;;;;;;31.38;23.15;;;;;;;;;;5054253;28;20424;-79
2024/03/08 05:40:32;;;;;;;33.58;24.63;;;;;;;;;;5054275;28;20389;-79
2024/03/08 05:42:59;;;;;;;33.17;24.77;;;;;;;;;;5054252;28;20380;-79
2024/03/08 05:45:25;;;;;;;31.55;24.40;;;;;;;;;;5053767;28;20420;-79
2024/03/08 05:47:51;;;;;;;34.28;24.75;;;;;;;;;;5054146;28;20848;-78
2024/03/08 05:50:18;;;;;;;32.78;24.63;;;;;;;;;;5054094;28;20509;-79
2024/03/08 05:52:44;;;;;;;33.28;25.05;;;;;;;;;;5054219;28;20716;-79
2024/03/08 05:55:10;;;;;;;32.25;23.50;;;;;;;;;;5054145;28;20382;-79
2024/03/08 05:57:39;;;;;;;34.08;24.48;;;;;;;;;;5053990;28;20397;-79
2024/03/08 06:00:06;;;;;;;34.17;24.75;;;;;;;;;;5053828;28;20381;-79
2024/03/08 06:02:32;;;;;;;31.25;23.58;;;;;;;;;;5053866;28;20385;-79
2024/03/08 06:04:58;;;;;;;31.70;23.63;;;;;;;;;;5054503;28;20424;-79
2024/03/08 06:07:24;;;;;;;33.55;24.00;;;;;;;;;;5052807;28;20397;-79
2024/03/08 06:09:50;;;;;;;34.35;25.15;;;;;;;;;;5054341;28;20381;-79
2024/03/08 06:12:18;;;;;;;32.63;24.08;;;;;;;;;;5053500;28;20875;-79
2024/03/08 06:14:45;;;;;;;30.48;23.40;;;;;;;;;;5053850;28;20767;-79
2024/03/08 06:17:11;;;;;;;32.63;23.50;;;;;;;;;;5053780;28;20385;-79
2024/03/08 06:19:37;;;;;;;34.92;24.70;;;;;;;;;;5053971;28;20744;-79
2024/03/08 06:22:05;;;;;;;31.65;23.73;;;;;;;;;;5054483;28;20381;-78
2024/03/08 06:24:32;;;;;;;33.35;24.15;;;;;;;;;;5053800;28;20412;-79
2024/03/08 06:26:58;;;;;;;35.40;24.60;;;;;;;;;;5053708;28;20419;-78
2024/03/08 06:29:24;;;;;;;33.92;24.95;;;;;;;;;;5053029;28;20382;-79
2024/03/08 06:31:50;;;;;;;37.00;25.35;;;;;;;;;;5053910;28;20428;-79
2024/03/08 06:34:17;;;;;;;37.58;26.25;;;;;;;;;;5053921;28;20395;-79
2024/03/08 06:36:44;;;;;;;38.47;25.73;;;;;;;;;;5053650;28;20369;-79
2024/03/08 06:39:09;;;;;;;36.13;25.83;;;;;;;;;;5053911;28;20435;-79
2024/03/08 06:41:38;;;;;;;37.35;25.80;;;;;;;;;;5054181;28;20381;-79
2024/03/08 06:44:05;;;;;;;36.35;25.40;;;;;;;;;;5054021;28;20377;-79
2024/03/08 06:46:31;;;;;;;38.13;25.73;;;;;;;;;;5054183;28;20405;-79
2024/03/08 06:48:57;;;;;;;34.83;24.83;;;;;;;;;;5053398;28;20863;-79
2024/03/08 06:51:23;;;;;;;32.60;24.25;;;;;;;;;;5053526;28;20487;-80
2024/03/08 06:53:50;;;;;;;36.83;25.00;;;;;;;;;;5053818;28;20377;-79
2024/03/08 06:56:16;;;;;;;35.05;24.40;;;;;;;;;;5050455;28;20388;-79
2024/03/08 06:58:42;;;;;;;34.60;24.50;;;;;;;;;;5033878;28;20378;-79
2024/03/08 07:01:13;;;;;;;33.30;24.27;;;;;;;;;;5033407;28;20414;-80
2024/03/08 07:03:43;;;;;;;34.17;24.23;;;;;;;;;;5033384;28;20421;-79
2024/03/08 07:06:09;;;;;;;35.20;25.67;;;;;;;;;;5033490;28;20928;-79
2024/03/08 07:08:35;;;;;;;33.58;23.83;;;;;;;;;;5033589;28;20465;-80
2024/03/08 07:11:01;;;;;;;34.70;25.60;;;;;;;;;;5033581;28;20912;-79
2024/03/08 07:13:29;;;;;;;36.00;25.75;;;;;;;;;;5033474;28;20410;-79
2024/03/08 07:15:55;;;;;;;33.58;24.35;;;;;;;;;;5033506;28;20386;-79
2024/03/08 07:18:21;;;;;;;32.92;24.17;;;;;;;;;;5042384;28;20382;-79
2024/03/08 07:20:49;;;;;;;33.43;23.80;;;;;;;;;;5039227;28;20394;-79
2024/03/08 07:23:46;;;;;;;36.08;25.13;;;;;;;;;;5034379;28;20389;-78
2024/03/08 07:26:01;;;;;;;34.05;24.77;;;;;;;;;;5045863;28;20413;-79
2024/03/08 07:28:27;;;;;;;34.60;24.25;;;;;;;;;;5051780;28;20374;-79
2024/03/08 07:31:02;;;;;;;37.78;25.63;;;;;;;;;;5052110;28;20381;-79
2024/03/08 07:33:28;;;;;;;37.88;25.55;;;;;;;;;;5052251;28;20373;-79
2024/03/08 07:35:54;;;;;;;37.40;26.57;;;;;;;;;;5052085;28;20396;-79
2024/03/08 07:38:21;;;;;;;37.40;25.38;;;;;;;;;;5052330;28;20389;-79
2024/03/08 07:40:47;;;;;;;36.55;25.58;;;;;;;;;;5054144;28;20393;-78
2024/03/08 07:43:14;;;;;;;38.72;25.55;;;;;;;;;;5056668;28;20839;-79
2024/03/08 07:45:40;;;;;;;37.15;25.58;;;;;;;;;;5056409;28;20759;-79
2024/03/08 07:48:09;;;;;;;37.63;25.63;;;;;;;;;;5056402;28;20424;-79
2024/03/08 07:50:41;;;;;;;37.50;24.87;;;;;;;;;;5056156;28;20401;-79
2024/03/08 07:53:08;;;;;;;37.33;25.05;;;;;;;;;;5056695;28;20423;-79
2024/03/08 07:55:35;;;;;;;35.00;24.58;;;;;;;;;;5056045;28;20398;-79
2024/03/08 07:58:01;;;;;;;33.20;23.80;;;;;;;;;;5056419;28;20392;-79
2024/03/08 08:00:27;;;;;;;36.70;24.05;;;;;;;;;;5056983;28;20460;-79
2024/03/08 08:02:54;;;;;;;34.95;23.30;;;;;;;;;;5056661;28;20875;-78
2024/03/08 08:05:20;;;;;;;34.85;23.58;;;;;;;;;;5056826;28;20441;-79
2024/03/08 08:07:46;;;;;;;34.17;24.30;;;;;;;;;;5056339;28;20369;-79
2024/03/08 08:10:22;;;;;;;32.03;23.17;;;;;;;;;;5056325;28;20381;-80
2024/03/08 08:12:51;;;;;;;33.75;23.80;;;;;;;;;;5055176;28;20385;-79
2024/03/08 08:15:17;;;;;;;33.28;23.80;;;;;;;;;;5056208;28;20451;-80
2024/03/08 08:17:44;;;;;;;35.95;24.90;;;;;;;;;;5056317;28;20447;-79
2024/03/08 08:20:11;;;;;;;31.35;21.92;;;;;;;;;;5056888;28;20386;-79
2024/03/08 08:22:38;;;;;;;34.60;23.50;;;;;;;;;;5056574;28;20847;-80
2024/03/08 08:25:05;;;;;;;32.85;23.42;;;;;;;;;;5055584;28;20409;-80
2024/03/08 08:27:31;;;;;;;29.88;22.33;;;;;;;;;;5056647;28;20377;-78
2024/03/08 08:29:57;;;;;;;33.33;22.83;;;;;;;;;;5056187;28;20392;-79
2024/03/08 08:32:23;;;;;;;31.58;22.67;;;;;;;;;;5054864;28;20385;-80
2024/03/08 08:34:49;;;;;;;31.15;22.73;;;;;;;;;;5056798;28;20396;-79
2024/03/08 08:37:16;;;;;;;29.65;21.98;;;;;;;;;;5056877;28;20374;-79
2024/03/08 08:39:42;;;;;;;31.65;22.45;;;;;;;;;;5056750;28;20373;-79
2024/03/08 08:42:09;;;;;;;32.75;22.60;;;;;;;;;;5056373;28;20832;-79
2024/03/08 08:44:35;;;;;;;30.98;22.35;;;;;;;;;;5056499;28;20405;-80
2024/03/08 08:47:03;;;;;;;31.10;22.40;;;;;;;;;;5055129;28;20467;-79
2024/03/08 08:49:30;;;;;;;30.52;22.20;;;;;;;;;;5056407;28;20411;-78
2024/03/08 08:51:58;;;;;;;29.48;21.75;;;;;;;;;;5055018;28;20870;-79
2024/03/08 08:54:25;;;;;;;30.17;22.45;;;;;;;;;;5055990;28;20478;-79
2024/03/08 08:56:51;;;;;;;30.27;21.65;;;;;;;;;;5056390;28;20427;-79
2024/03/08 08:59:19;;;;;;;34.60;22.90;;;;;;;;;;5055818;28;20381;-79
2024/03/08 09:01:50;;;;;;;31.40;22.70;;;;;;;;;;5050169;28;20379;-79
2024/03/08 09:04:16;;;;;;;32.20;22.27;;;;;;;;;;5035932;28;21151;-80
2024/03/08 09:06:42;;;;;;;32.97;22.65;;;;;;;;;;5035964;28;20445;-79
2024/03/08 09:09:09;;;;;;;29.17;21.02;;;;;;;;;;5036200;28;20372;-79
2024/03/08 09:11:35;;;;;;;30.33;21.45;;;;;;;;;;5035775;28;20382;-80
2024/03/08 09:14:01;;;;;;;29.42;20.95;;;;;;;;;;5034416;28;20379;-79
2024/03/08 09:16:28;;;;;;;34.67;24.73;;;;;;;;;;5049003;28;20781;-79
2024/03/08 09:18:53;;;;;;;29.33;20.15;;;;;;;;;;5055527;28;20490;-79
2024/03/08 09:21:19;;;;;;;25.70;19.15;;;;;;;;;;5055947;28;20385;-80
2024/03/08 09:23:46;;;;;;;27.45;19.42;;;;;;;;;;5055573;28;20432;-79
2024/03/08 09:26:12;;;;;;;30.80;20.38;;;;;;;;;;5055436;28;20459;-79
2024/03/08 09:28:38;;;;;;;27.77;19.73;;;;;;;;;;5055729;28;20408;-79
2024/03/08 09:31:05;;;;;;;29.45;20.75;;;;;;;;;;5055535;28;20464;-79
2024/03/08 09:33:31;;;;;;;27.70;20.07;;;;;;;;;;5055149;28;20893;-79
2024/03/08 09:36:00;;;;;;;26.08;19.33;;;;;;;;;;5055606;28;20468;-79
2024/03/08 09:38:26;;;;;;;27.63;19.87;;;;;;;;;;5055338;28;20712;-79
2024/03/08 09:40:53;;;;;;;31.70;23.63;;;;;;;;;;5055101;28;20397;-79
2024/03/08 09:43:19;;;;;;;27.83;20.30;;;;;;;;;;5054659;28;20386;-78
2024/03/08 09:45:46;;;;;;;25.92;19.88;;;;;;;;;;5054259;28;20454;-78
2024/03/08 09:48:13;;;;;;;27.65;20.05;;;;;;;;;;5054635;28;20378;-78
2024/03/08 09:50:41;;;;;;;26.45;19.70;;;;;;;;;;5054218;28;20412;-79
2024/03/08 09:53:08;;;;;;;26.25;19.95;;;;;;;;;;5054695;28;20397;-79
2024/03/08 09:55:36;;;;;;;25.20;19.70;;;;;;;;;;5054301;28;20377;-79
2024/03/08 10:00:47;;;;;;;24.13;18.13;;;;;;;;;;5054299;28;20837;-78
2024/03/08 10:03:14;;;;;;;26.67;19.73;;;;;;;;;;5054518;28;20419;-79
2024/03/08 10:05:41;;;;;;;22.75;18.20;;;;;;;;;;5053955;28;20409;-78
2024/03/08 10:08:08;;;;;;;24.67;17.85;;;;;;;;;;5054400;28;20400;-79
2024/03/08 10:10:37;;;;;;;24.27;18.13;;;;;;;;;;5054152;28;20373;-78
2024/03/08 10:13:05;;;;;;;26.30;18.92;;;;;;;;;;5054129;28;20378;-79
2024/03/08 10:15:34;;;;;;;23.85;19.00;;;;;;;;;;5054040;28;20770;-79
2024/03/08 10:18:02;;;;;;;27.35;18.90;;;;;;;;;;5054006;28;20439;-78
2024/03/08 10:20:28;;;;;;;26.70;18.77;;;;;;;;;;5053685;28;20384;-79
2024/03/08 10:22:54;;;;;;;25.80;19.42;;;;;;;;;;5054044;28;20393;-78
2024/03/08 10:25:20;;;;;;;27.17;19.25;;;;;;;;;;5052450;28;20405;-78
2024/03/08 10:27:46;;;;;;;25.70;19.75;;;;;;;;;;5053614;28;20420;-78
2024/03/08 10:30:19;;;;;;;24.13;18.93;;;;;;;;;;5053628;28;20870;-78
2024/03/08 10:32:46;;;;;;;28.08;19.08;;;;;;;;;;5053614;28;20424;-79
2024/03/08 10:35:12;;;;;;;30.52;18.60;;;;;;;;;;5054081;28;20378;-79
2024/03/08 10:37:59;;;;;;;26.30;18.13;;;;;;;;;;5053661;28;20513;-79
2024/03/08 10:40:26;;;;;;;22.25;17.65;;;;;;;;;;5053408;28;20724;-79
2024/03/08 10:42:54;;;;;;;23.63;18.20;;;;;;;;;;5052473;28;20871;-79
2024/03/08 10:45:26;;;;;;;25.08;17.67;;;;;;;;;;5055862;28;20409;-80
2024/03/08 10:48:01;;;;;;;24.90;17.50;;;;;;;;;;5055434;28;20456;-79
2024/03/08 10:50:28;;;;;;;25.63;17.57;;;;;;;;;;5054579;28;20398;-79
2024/03/08 10:52:55;;;;;;;21.48;16.60;;;;;;;;;;5054730;28;20445;-80
2024/03/08 10:55:21;;;;;;;22.80;17.00;;;;;;;;;;5054526;28;20396;-79
2024/03/08 10:57:47;;;;;;;21.00;16.42;;;;;;;;;;5041128;28;20833;-79
2024/03/08 11:00:14;;;;;;;20.35;16.33;;;;;;;;;;5034370;28;20841;-80
2024/03/08 11:02:44;;;;;;;18.88;15.10;;;;;;;;;;5034573;28;20391;-78
2024/03/08 11:05:39;;;;;;;20.33;15.63;;;;;;;;;;5034084;28;20418;-79
2024/03/08 11:08:21;;;;;;;20.35;15.80;;;;;;;;;;5029349;28;20390;-79
2024/03/08 11:10:51;;;;;;;17.93;15.90;;;;;;;;;;5033708;28;20750;-79
2024/03/08 11:13:35;;;;;;;21.25;16.50;;;;;;;;;;5033403;28;20379;-80
2024/03/08 11:16:05;;;;;;;19.73;15.98;;;;;;;;;;5033070;28;20449;-80
2024/03/08 11:18:33;;;;;;;20.90;16.33;;;;;;;;;;5031645;28;20402;-79
2024/03/08 11:21:03;;;;;;;18.90;15.30;;;;;;;;;;5035873;28;20977;-79
2024/03/08 11:23:31;;;;;;;19.45;16.13;;;;;;;;;;5033062;28;20391;-80
2024/03/08 11:25:58;;;;;;;20.17;15.10;;;;;;;;;;5033000;28;20398;-79
2024/03/08 11:28:24;;;;;;;19.38;15.27;;;;;;;;;;5032970;28;20426;-78
2024/03/08 11:31:00;;;;;;;18.33;15.25;;;;;;;;;;5033080;28;20715;-79
2024/03/08 11:33:29;;;;;;;19.10;14.43;;;;;;;;;;5032930;28;20383;-79
2024/03/08 11:36:17;;;;;;;17.98;14.90;;;;;;;;;;5032537;28;20382;-79
2024/03/08 11:38:43;;;;;;;19.08;15.48;;;;;;;;;;5051160;28;20855;-79
2024/03/08 11:41:14;;;;;;;19.33;15.65;;;;;;;;;;5052543;28;20436;-79
2024/03/08 11:43:41;;;;;;;20.80;16.30;;;;;;;;;;5052946;28;20382;-79
2024/03/08 11:46:17;;;;;;;22.88;16.65;;;;;;;;;;5052776;28;20879;-79
2024/03/08 11:48:44;;;;;;;21.33;16.60;;;;;;;;;;5052671;28;20402;-79
2024/03/08 11:51:13;;;;;;;18.98;16.00;;;;;;;;;;5052509;28;20397;-79
2024/03/08 11:53:40;;;;;;;20.00;16.27;;;;;;;;;;5050909;28;20948;-79
2024/03/08 11:56:07;;;;;;;21.80;17.60;;;;;;;;;;5052558;28;20381;-79
2024/03/08 11:58:33;;;;;;;20.80;16.83;;;;;;;;;;5052625;28;20831;-79
2024/03/08 12:01:06;;;;;;;22.40;17.33;;;;;;;;;;5052517;28;20385;-79
2024/03/08 12:03:33;;;;;;;21.77;17.80;;;;;;;;;;5052493;28;20384;-79
2024/03/08 12:06:00;;;;;;;20.67;16.30;;;;;;;;;;5052343;28;20400;-80
2024/03/08 12:08:29;;;;;;;18.50;15.93;;;;;;;;;;5052381;28;20825;-80
2024/03/08 12:10:59;;;;;;;20.38;16.50;;;;;;;;;;5052486;28;20412;-79
2024/03/08 12:13:29;;;;;;;19.55;16.08;;;;;;;;;;5052542;28;20423;-79
2024/03/08 12:15:55;;;;;;;19.00;15.85;;;;;;;;;;5052467;28;20397;-79
2024/03/08 12:18:21;;;;;;;19.55;15.30;;;;;;;;;;5052106;28;20387;-80
2024/03/08 12:20:49;;;;;;;19.92;16.48;;;;;;;;;;5052176;28;20416;-80
2024/03/08 12:23:16;;;;;;;21.00;16.40;;;;;;;;;;5052230;28;20385;-79
2024/03/08 12:25:42;;;;;;;22.60;17.77;;;;;;;;;;5051617;28;20405;-80
2024/03/08 12:28:13;;;;;;;20.30;16.58;;;;;;;;;;5054435;28;20393;-79
2024/03/08 12:30:47;;;;;;;20.10;15.80;;;;;;;;;;5055826;28;20377;-80
2024/03/08 12:33:13;;;;;;;19.88;15.82;;;;;;;;;;5056077;28;20433;-79
2024/03/08 12:35:39;;;;;;;19.17;15.30;;;;;;;;;;5055537;28;20381;-79
2024/03/08 12:38:06;;;;;;;21.07;16.80;;;;;;;;;;5055901;28;20728;-80
2024/03/08 12:40:34;;;;;;;19.10;16.02;;;;;;;;;;5055731;28;20881;-79
2024/03/08 12:43:00;;;;;;;21.30;16.70;;;;;;;;;;5055518;28;20385;-79
2024/03/08 12:45:26;;;;;;;20.65;16.45;;;;;;;;;;5055374;28;20433;-79
2024/03/08 12:47:53;;;;;;;19.63;16.60;;;;;;;;;;5055711;28;20393;-80
2024/03/08 12:50:19;;;;;;;22.02;17.58;;;;;;;;;;5055328;28;20763;-80
2024/03/08 12:52:45;;;;;;;20.92;16.73;;;;;;;;;;5056234;28;20377;-79
2024/03/08 12:55:12;;;;;;;21.17;17.00;;;;;;;;;;5055405;28;20390;-79
2024/03/08 12:57:38;;;;;;;21.77;17.02;;;;;;;;;;5055483;28;20863;-81
2024/03/08 13:00:05;;;;;;;19.50;16.50;;;;;;;;;;5055157;28;20439;-81
2024/03/08 13:02:32;;;;;;;21.98;17.33;;;;;;;;;;5056453;28;20400;-81
2024/03/08 13:04:58;;;;;;;23.67;18.95;;;;;;;;;;5053852;28;20409;-82
2024/03/08 13:07:25;;;;;;;23.45;18.27;;;;;;;;;;5054882;28;20385;-81
2024/03/08 13:09:54;;;;;;;22.27;17.48;;;;;;;;;;5055125;28;20791;-81
2024/03/08 13:12:21;;;;;;;22.40;18.00;;;;;;;;;;5045557;28;20398;-81
2024/03/08 13:14:47;;;;;;;22.73;18.17;;;;;;;;;;5035951;28;20437;-82
2024/03/08 13:17:18;;;;;;;24.38;18.05;;;;;;;;;;5036028;28;20433;-82
2024/03/08 13:19:44;;;;;;;22.10;17.63;;;;;;;;;;5034852;28;20391;-81
2024/03/08 13:22:16;;;;;;;22.45;16.75;;;;;;;;;;5036305;28;20387;-82
2024/03/08 13:24:44;;;;;;;21.25;16.58;;;;;;;;;;5036004;28;20395;-82
2024/03/08 13:27:19;;;;;;;23.65;18.35;;;;;;;;;;5036161;28;20402;-81
2024/03/08 13:29:46;;;;;;;23.90;17.63;;;;;;;;;;5036231;28;20851;-81
2024/03/08 13:32:12;;;;;;;21.25;18.02;;;;;;;;;;5036129;28;20740;-82
2024/03/08 13:34:41;;;;;;;23.88;17.30;;;;;;;;;;5042193;28;20373;-82
2024/03/08 13:37:09;;;;;;;20.65;16.88;;;;;;;;;;5055828;28;20382;-82
2024/03/08 13:39:40;;;;;;;20.13;17.00;;;;;;;;;;5055304;28;21165;-82
2024/03/08 13:42:12;;;;;;;23.13;18.75;;;;;;;;;;5055654;28;20436;-82
2024/03/08 13:44:38;;;;;;;24.92;19.98;;;;;;;;;;5055665;28;20381;-82
2024/03/08 13:47:04;;;;;;;24.33;19.80;;;;;;;;;;5055427;28;20427;-82
2024/03/08 13:49:31;;;;;;;24.77;20.75;;;;;;;;;;5055081;28;20504;-82
2024/03/08 13:51:58;;;;;;;26.52;21.27;;;;;;;;;;5055113;28;20863;-82
2024/03/08 13:54:27;;;;;;;24.73;19.60;;;;;;;;;;5055680;28;20381;-81
2024/03/08 13:56:54;;;;;;;21.63;17.80;;;;;;;;;;5055233;28;20397;-82
2024/03/08 13:59:22;;;;;;;23.38;18.55;;;;;;;;;;5055168;28;20495;-81
2024/03/08 14:01:51;;;;;;;21.85;17.67;;;;;;;;;;5055213;28;20438;-82
2024/03/08 14:04:17;;;;;;;18.85;16.00;;;;;;;;;;5055154;28;20395;-81
2024/03/08 14:06:46;;;;;;;20.27;15.57;;;;;;;;;;5054533;28;20898;-81
2024/03/08 14:09:18;;;;;;;20.13;16.08;;;;;;;;;;5055971;28;20382;-82
2024/03/08 14:11:44;;;;;;;20.40;15.60;;;;;;;;;;5061855;28;20386;-82
2024/03/08 14:14:14;;;;;;;21.92;16.52;;;;;;;;;;5060733;28;20377;-82
2024/03/08 14:16:40;;;;;;;18.90;15.68;;;;;;;;;;5057142;28;20430;-81
2024/03/08 14:19:06;;;;;;;17.63;14.77;;;;;;;;;;5055987;28;20854;-82